• Join FlightAware (Why Join?)
  • Login
  • US Flag 
06:13PM EDT


 

Airport Tracker/Info


-or-


 

Live Flight TrackerFlight Track Log ✈ N157WH ✈ 07-May-2013 ✈ KTMB - MPMG / PAC

Flight Track Log - Related Links

Times and Time Zones

All times are in EDT time to prevent confusion due to time zone crossing. See the N157WH flight status page for this flight to view local times or setup timezone preferences in your user account.

Time Position Orientation Groundspeed Altitude Reporting Facility
EDT Latitude Longitude Course Direction KTS MPH feet Rate Location/Type
11:27AM 25.6392 -80.4589 274° West 168 193 900  Level Miami Center
11:28AM 25.6453 -80.5514 274° West 266 306 2,100 840 Climbing Miami Center
11:28AM 25.6492 -80.5653 287° West 271 312 2,300 2,580 Climbing Miami Center
11:29AM 25.6086 -80.5917 210° Southwest 209 241 5,500 3,000 Climbing Miami Center
11:30AM 25.5503 -80.5853 174° South 155 178 8,300 2,880 Climbing Miami Center
11:31AM 25.4756 -80.5692 169° South 235 270 11,300 3,000 Climbing Miami Center
11:32AM 25.4031 -80.5508 167° South 264 304 14,300 2,520 Climbing Miami Center
11:33AM 25.3261 -80.5322 168° South 280 322 16,400 2,100 Climbing Miami Center
11:34AM 25.2389 -80.5114 168° South 302 348 18,500 2,040 Climbing Miami Center
11:35AM 25.1497 -80.4903 168° South 315 362 20,500 1,920 Climbing Miami Center
11:36AM 25.0561 -80.4669 167° South 337 388 22,400 1,800 Climbing Miami Center
11:37AM 24.9606 -80.4458 169° South 342 394 24,100 1,500 Climbing Miami Center
11:38AM 24.8653 -80.4178 165° South 354 407 25,400 1,320 Climbing Miami Center
11:39AM 24.7667 -80.4289 186° South 354 407 26,800 1,440 Climbing Miami Center
11:40AM 24.6739 -80.4625 198° South 353 406 28,300 1,380 Climbing Miami Center
11:41AM 24.5792 -80.4964 198° South 359 413 29,600 1,500 Climbing Miami Center
11:42AM 24.4886 -80.5281 198° South 359 413 31,400 1,380 Climbing Miami Center
11:43AM 24.4000 -80.5597 198° South 354 407 32,400 900 Climbing Miami Center
11:44AM 24.3075 -80.5842 194° South 343 395 33,300 660 Climbing Miami Center
11:45AM 24.2150 -80.6042 191° South 343 395 33,800 900 Climbing Miami Center
11:46AM 24.1250 -80.6197 189° South 338 389 35,100 1,260 Climbing Miami Center
11:48AM 24.0205 -80.6032 172° South  Level FlightAware Approximate
11:55AM 23.3094 -80.7340 190° South  Level FlightAware Approximate
11:56AM 23.2087 -80.7527 190° South  Level FlightAware Approximate
11:57AM 23.1079 -80.7713 190° South  Level FlightAware Approximate
11:58AM 23.0072 -80.7899 190° South  Level FlightAware Approximate
11:59AM 22.9064 -80.8085 190° South  Level FlightAware Approximate
12:00PM 22.8057 -80.8271 190° South  Level FlightAware Approximate
12:01PM 22.7049 -80.8456 190° South  Level FlightAware Approximate
12:02PM 22.6042 -80.8641 190° South  Level FlightAware Approximate
12:03PM 22.5034 -80.8826 190° South  Level FlightAware Approximate
12:04PM 22.4027 -80.9010 190° South  Level FlightAware Approximate
12:05PM 22.3019 -80.9195 190° South  Level FlightAware Approximate
12:06PM 22.2011 -80.9379 190° South  Level FlightAware Approximate
12:07PM 22.1003 -80.9562 190° South  Level FlightAware Approximate
12:08PM 21.9996 -80.9746 190° South  Level FlightAware Approximate
12:09PM 21.8988 -80.9929 190° South  Level FlightAware Approximate
12:10PM 21.7980 -81.0112 190° South  Level FlightAware Approximate
12:11PM 21.6973 -81.0294 190° South  Level FlightAware Approximate
12:12PM 21.5965 -81.0477 190° South  Level FlightAware Approximate
12:13PM 21.4957 -81.0659 190° South  Level FlightAware Approximate
12:14PM 21.3949 -81.0841 190° South  Level FlightAware Approximate
12:15PM 21.2941 -81.1023 190° South  Level FlightAware Approximate
12:16PM 21.1933 -81.1204 190° South  Level FlightAware Approximate
12:17PM 21.0926 -81.1385 190° South  Level FlightAware Approximate
12:18PM 20.9918 -81.1566 190° South  Level FlightAware Approximate
12:19PM 20.8910 -81.1747 190° South  Level FlightAware Approximate
12:20PM 20.7902 -81.1927 189° South  Level FlightAware Approximate
12:21PM 20.6894 -81.2107 189° South  Level FlightAware Approximate
12:22PM 20.5886 -81.2287 189° South  Level FlightAware Approximate
12:23PM 20.4878 -81.2467 189° South  Level FlightAware Approximate
12:24PM 20.3870 -81.2647 189° South  Level FlightAware Approximate
12:25PM 20.2862 -81.2826 189° South  Level FlightAware Approximate
12:26PM 20.1854 -81.3005 189° South  Level FlightAware Approximate
12:27PM 20.0846 -81.3184 189° South  Level FlightAware Approximate
12:28PM 19.9836 -81.3341 183° South  Level FlightAware Approximate
12:29PM 19.8815 -81.3389 183° South  Level FlightAware Approximate
12:30PM 19.7794 -81.3436 183° South  Level FlightAware Approximate
12:31PM 19.6773 -81.3484 183° South  Level FlightAware Approximate
12:32PM 19.5752 -81.3531 183° South  Level FlightAware Approximate
12:33PM 19.4731 -81.3579 183° South  Level FlightAware Approximate
12:34PM 19.3710 -81.3626 183° South  Level FlightAware Approximate
12:35PM 19.2691 -81.3641 170° South  Level FlightAware Approximate
12:36PM 19.1684 -81.3456 170° South  Level FlightAware Approximate
12:37PM 19.0677 -81.3272 170° South  Level FlightAware Approximate
12:38PM 18.9670 -81.3088 170° South  Level FlightAware Approximate
12:39PM 18.8663 -81.2904 170° South  Level FlightAware Approximate
12:40PM 18.7656 -81.2720 170° South  Level FlightAware Approximate
12:41PM 18.6649 -81.2537 170° South  Level FlightAware Approximate
12:42PM 18.5642 -81.2354 170° South  Level FlightAware Approximate
12:43PM 18.4635 -81.2171 170° South  Level FlightAware Approximate
12:44PM 18.3628 -81.1988 170° South  Level FlightAware Approximate
12:45PM 18.2621 -81.1805 170° South  Level FlightAware Approximate
12:46PM 18.1614 -81.1623 170° South  Level FlightAware Approximate
12:47PM 18.0606 -81.1441 170° South  Level FlightAware Approximate
12:48PM 17.9599 -81.1259 170° South  Level FlightAware Approximate
12:49PM 17.8592 -81.1077 170° South  Level FlightAware Approximate
12:50PM 17.7585 -81.0896 170° South  Level FlightAware Approximate
12:51PM 17.6577 -81.0714 170° South  Level FlightAware Approximate
12:52PM 17.5570 -81.0533 170° South  Level FlightAware Approximate
12:53PM 17.4563 -81.0352 170° South  Level FlightAware Approximate
12:54PM 17.3556 -81.0172 170° South  Level FlightAware Approximate
12:55PM 17.2548 -80.9991 170° South  Level FlightAware Approximate
12:56PM 17.1541 -80.9811 170° South  Level FlightAware Approximate
12:57PM 17.0534 -80.9631 170° South  Level FlightAware Approximate
12:58PM 16.9527 -80.9451 170° South  Level FlightAware Approximate
12:59PM 16.8519 -80.9271 170° South  Level FlightAware Approximate
01:00PM 16.7512 -80.9092 170° South  Level FlightAware Approximate
01:01PM 16.6504 -80.8912 170° South  Level FlightAware Approximate
01:02PM 16.5497 -80.8733 170° South  Level FlightAware Approximate
01:03PM 16.4489 -80.8554 170° South  Level FlightAware Approximate
01:04PM 16.3482 -80.8375 170° South  Level FlightAware Approximate
01:05PM 16.2475 -80.8197 170° South  Level FlightAware Approximate
01:06PM 16.1467 -80.8018 170° South  Level FlightAware Approximate
01:07PM 16.0460 -80.7840 170° South  Level FlightAware Approximate
01:08PM 15.9452 -80.7662 170° South  Level FlightAware Approximate
01:09PM 15.8445 -80.7484 170° South  Level FlightAware Approximate
01:10PM 15.7437 -80.7306 170° South  Level FlightAware Approximate
01:11PM 15.6430 -80.7129 170° South  Level FlightAware Approximate
01:12PM 15.5422 -80.6951 170° South  Level FlightAware Approximate
01:13PM 15.4414 -80.6774 170° South  Level FlightAware Approximate
01:14PM 15.3407 -80.6597 170° South  Level FlightAware Approximate
01:15PM 15.2399 -80.6420 170° South  Level FlightAware Approximate
01:16PM 15.1392 -80.6244 170° South  Level FlightAware Approximate
01:17PM 15.0384 -80.6067 170° South  Level FlightAware Approximate
01:18PM 14.9376 -80.5894 171° South  Level FlightAware Approximate
01:19PM 14.8367 -80.5722 171° South  Level FlightAware Approximate
01:20PM 14.7359 -80.5551 171° South  Level FlightAware Approximate
01:21PM 14.6351 -80.5379 171° South  Level FlightAware Approximate
01:22PM 14.5342 -80.5208 171° South  Level FlightAware Approximate
01:23PM 14.4334 -80.5037 171° South  Level FlightAware Approximate
01:24PM 14.3325 -80.4866 171° South  Level FlightAware Approximate
01:25PM 14.2317 -80.4696 171° South  Level FlightAware Approximate
01:26PM 14.1308 -80.4525 171° South  Level FlightAware Approximate
01:27PM 14.0300 -80.4355 171° South  Level FlightAware Approximate
01:28PM 13.9291 -80.4185 171° South  Level FlightAware Approximate
01:29PM 13.8283 -80.4015 171° South  Level FlightAware Approximate
01:30PM 13.7274 -80.3845 171° South  Level FlightAware Approximate
01:31PM 13.6266 -80.3675 171° South  Level FlightAware Approximate
01:32PM 13.5257 -80.3505 171° South  Level FlightAware Approximate
01:33PM 13.4249 -80.3336 171° South  Level FlightAware Approximate
01:34PM 13.3240 -80.3167 171° South  Level FlightAware Approximate
01:35PM 13.2232 -80.2997 171° South  Level FlightAware Approximate
01:36PM 13.1223 -80.2828 171° South  Level FlightAware Approximate
01:37PM 13.0214 -80.2660 171° South  Level FlightAware Approximate
01:38PM 12.9206 -80.2491 171° South  Level FlightAware Approximate
01:39PM 12.8197 -80.2322 171° South  Level FlightAware Approximate
01:40PM 12.7189 -80.2154 171° South  Level FlightAware Approximate
01:41PM 12.6180 -80.1985 171° South  Level FlightAware Approximate
01:42PM 12.5171 -80.1817 171° South  Level FlightAware Approximate
01:43PM 12.4163 -80.1649 171° South  Level FlightAware Approximate
01:44PM 12.3154 -80.1481 171° South  Level FlightAware Approximate
01:45PM 12.2145 -80.1313 171° South  Level FlightAware Approximate
01:46PM 12.1136 -80.1145 171° South  Level FlightAware Approximate
01:47PM 12.0128 -80.0978 171° South  Level FlightAware Approximate
01:48PM 11.9119 -80.0810 171° South  Level FlightAware Approximate
01:49PM 11.8110 -80.0643 171° South  Level FlightAware Approximate
01:50PM 11.7102 -80.0476 171° South  Level FlightAware Approximate
01:51PM 11.6093 -80.0309 171° South  Level FlightAware Approximate
01:52PM 11.5084 -80.0142 171° South  Level FlightAware Approximate
01:53PM 11.4075 -79.9975 171° South  Level FlightAware Approximate
01:54PM 11.3067 -79.9808 171° South  Level FlightAware Approximate
01:55PM 11.2058 -79.9642 171° South  Level FlightAware Approximate
01:56PM 11.1049 -79.9475 171° South  Level FlightAware Approximate
01:57PM 11.0040 -79.9309 171° South  Level FlightAware Approximate
01:58PM 10.9031 -79.9142 171° South  Level FlightAware Approximate
01:59PM 10.8023 -79.8971 169° South  Level FlightAware Approximate
02:00PM 10.7021 -79.8771 169° South  Level FlightAware Approximate
02:01PM 10.6015 -79.8603 169° South  Level FlightAware Approximate
02:02PM 10.5012 -79.8402 169° South  Level FlightAware Approximate
02:03PM 10.4009 -79.8202 169° South  Level FlightAware Approximate
02:04PM 10.3006 -79.8001 169° South  Level FlightAware Approximate
02:05PM 10.1991 -79.7932 169° South  Level FlightAware Approximate
02:06PM 10.0989 -79.7731 169° South  Level FlightAware Approximate
02:07PM 9.9986 -79.7531 169° South  Level FlightAware Approximate
02:08PM 9.8978 -79.7361 171° South  Level FlightAware Approximate
02:09PM 9.7969 -79.7197 171° South  Level FlightAware Approximate
02:10PM 9.6959 -79.7033 171° South  Level FlightAware Approximate
02:11PM 9.5950 -79.6870 171° South  Level FlightAware Approximate
02:12PM 9.4941 -79.6706 171° South  Level FlightAware Approximate
02:13PM 9.3932 -79.6543 171° South  Level FlightAware Approximate
02:14PM 9.2928 -79.6352 169° South  Level FlightAware Approximate
02:15PM 9.1925 -79.6154 171° South  Level FlightAware Approximate
02:16PM 9.0916 -79.5986 171° South  Level FlightAware Approximate
02:17PM 8.9907 -79.5824 174° South  Level FlightAware Approximate
02:18PM 8.9733 -79.5556 174° South  Level Estimated
02:19PM 8.9733 -79.5556 162° South  Level Estimated
02:20PM 8.9733 -79.5556 11° North  Level Estimated
02:21PM 8.9733 -79.5556 11° North  Level Estimated
02:22PM 8.9733 -79.5556 11° North  Level Estimated
02:23PM 8.9733 -79.5556 11° North  Level Estimated
02:24PM 8.9733 -79.5556 11° North  Level Estimated
02:25PM 8.9733 -79.5556 11° North  Level Estimated
02:26PM 8.9733 -79.5556 11° North  Level Estimated
02:27PM 8.9733 -79.5556 11° North  Level Estimated
02:28PM 8.9733 -79.5556 11° North  Level Estimated
02:29PM 8.9733 -79.5556 11° North  Level Estimated
02:30PM 8.9733 -79.5556 11° North  Level Estimated
02:31PM 8.9733 -79.5556 11° North  Level Estimated
02:32PM 8.9733 -79.5556 11° North  Level Estimated
02:33PM 8.9733 -79.5556 11° North  Level Estimated